Terminal Aerodrome Forecast
Issued by NWS Cheyenne, WY

Home | Current Version | Previous Version | Text Only | Print | Product List | Glossary On
Versions: 1 2 3 4 5 6 7 8 9 10 11 12 13 14 15 16 17 18 19 20 21 22 23 24 25 26 27 28 29 30 31 32 33 34 35 36 37
000
FTUS45 KCYS 010633 AAA
TAFCYS
TAF AMD
KCYS 010633Z 0107/0206 35018G27KT 5SM -SHSN OVC010
      TEMPO 0107/0108 3SM -SN OVC009
     FM010900 35015G22KT P6SM OVC020
     FM011200 33013G20KT P6SM SCT030 BKN060
     FM011800 34013G20KT P6SM SKC
     FM020000 23008KT P6SM SCT250=

USA.gov is the U.S. government's official web portal to all federal, state and local government web resources and services.